Solidat — UBEE — position and weather

sailwx.info

Track history (hours):
 
Tides and Currents Weather Stations Pressure Air Temp Water Temp Dewpoint Dewpoint Depression Visibility Wind Speed Wind Dir Waves Ship Positions

Solidat

Last reported at 2017-Nov-18 12:42 UTC. Time now 2017-Nov-23 05:40 UTC.
Position N 44°37' E 037°27'.

Length 83 m; draft 4.4 m.

Type: Cargo ship. MMSI: 273327300.

Date/timePositionNaut miles runAvg speedWind from/ knotsBaromVisibWave heightAir tempDewpointWater temp
2017-Nov-18 12:42N 44°37' E 037°27'3 7.0
2017-Nov-18 12:19N 44°36' E 037°30'2 6.3
2017-Nov-18 12:00N 44°35' E 037°33'3 7.0
2017-Nov-18 11:30N 44°35' E 037°38'3 6.7
2017-Nov-18 11:00N 44°35' E 037°42'3 6.2
2017-Nov-18 10:30N 44°36' E 037°47'3 5.8
2017-Nov-18 10:00N 44°38' E 037°49'2 4.7
2017-Nov-18 09:30N 44°40' E 037°51'3 5.6
2017-Nov-18 09:00N 44°42' E 037°49'1 1.7
2017-Nov-18 08:29N 44°43' E 037°49'0 0.0
2017-Nov-18 07:59N 44°43' E 037°49'0 0.0
2017-Nov-18 07:29N 44°43' E 037°49'0 0.0
2017-Nov-18 06:59N 44°43' E 037°49'0 0.0
2017-Nov-18 06:29N 44°43' E 037°49'0 0.0
2017-Nov-18 05:59N 44°43' E 037°49'0 0.0
2017-Nov-18 05:29N 44°43' E 037°49'0 0.0
2017-Nov-18 04:59N 44°43' E 037°49'0 0.0
2017-Nov-18 04:29N 44°43' E 037°49'0 0.0
2017-Nov-18 03:59N 44°43' E 037°49'0 0.0
2017-Nov-18 03:29N 44°43' E 037°49'0 0.0
2017-Nov-18 02:59N 44°43' E 037°49'0 0.0
2017-Nov-18 02:29N 44°43' E 037°49'0 0.0
2017-Nov-18 02:00N 44°43' E 037°49'1 2.7
2017-Nov-18 01:30N 44°42' E 037°49'3 5.4
2017-Nov-18 01:00N 44°40' E 037°51'2 4.7
2017-Nov-18 00:30N 44°39' E 037°54'1 1.3
2017-Nov-18 00:00N 44°39' E 037°55'0 0.0
2017-Nov-17 23:30N 44°39' E 037°55'0 0.0
2017-Nov-17 23:00N 44°39' E 037°55'0 0.0
2017-Nov-17 22:27N 44°39' E 037°55'0 0.1
2017-Nov-17 22:00N 44°39' E 037°55'0 0.0
2017-Nov-17 21:30N 44°39' E 037°55'0 0.0
2017-Nov-17 21:00N 44°39' E 037°55'0 0.0
2017-Nov-17 20:30N 44°39' E 037°55'0 0.0
2017-Nov-17 20:00N 44°39' E 037°55'0 0.0
2017-Nov-17 19:30N 44°39' E 037°55'0 0.1
2017-Nov-17 19:00N 44°39' E 037°55'0 0.0
2017-Nov-17 18:30N 44°39' E 037°55'0 0.0
2017-Nov-17 18:00N 44°39' E 037°55'0 0.0
2017-Nov-17 17:30N 44°39' E 037°55'0 0.0
2017-Nov-17 17:00N 44°39' E 037°55'0 0.0
2017-Nov-17 16:30N 44°39' E 037°55'0 0.0
2017-Nov-17 16:00N 44°39' E 037°55'0 0.0
2017-Nov-17 15:30N 44°39' E 037°55'0 0.0
2017-Nov-17 13:15N 44°39' E 037°55'0 0.0
2017-Nov-17 13:00N 44°39' E 037°55'0 0.0
2017-Nov-17 12:30N 44°39' E 037°55'0 0.0
2017-Nov-17 11:57N 44°39' E 037°55'0 0.0
2017-Nov-17 11:30N 44°39' E 037°55'0 0.0
2017-Nov-17 10:57N 44°39' E 037°55'0 0.0
2017-Nov-17 10:30N 44°39' E 037°55'0 0.0
2017-Nov-17 10:00N 44°39' E 037°55'0 0.0
2017-Nov-17 09:30N 44°39' E 037°55'0 0.0
2017-Nov-17 09:00N 44°39' E 037°55'0 0.0
2017-Nov-17 08:30N 44°39' E 037°55'0 0.0
2017-Nov-17 08:00N 44°39' E 037°55'0 0.0
2017-Nov-17 07:30N 44°39' E 037°55'0 0.0
2017-Nov-17 07:00N 44°39' E 037°55'0 0.0
2017-Nov-17 06:30N 44°39' E 037°55'0 0.0
2017-Nov-16 21:57N 44°39' E 037°55'0 0.0
2017-Nov-16 21:30N 44°39' E 037°55'0 0.0
2017-Nov-16 21:00N 44°39' E 037°55'0 0.0
2017-Nov-16 20:30N 44°39' E 037°55'0 0.0
2017-Nov-16 19:45N 44°39' E 037°55'0 0.0
2017-Nov-16 19:30N 44°39' E 037°55'0 0.0
2017-Nov-16 19:00N 44°39' E 037°55'0 0.0
2017-Nov-16 18:30N 44°39' E 037°55'0 0.0
2017-Nov-16 18:00N 44°39' E 037°55'0 0.0
2017-Nov-16 17:30N 44°39' E 037°55'0 0.0
2017-Nov-16 17:00N 44°39' E 037°55'0 0.0
2017-Nov-16 16:30N 44°39' E 037°55'0 0.0
2017-Nov-16 16:00N 44°39' E 037°55'0 0.0
2017-Nov-16 15:30N 44°39' E 037°55'0 0.0
2017-Nov-16 15:00N 44°39' E 037°55'0 0.0
2017-Nov-16 14:30N 44°39' E 037°55'0 0.0
2017-Nov-16 14:00N 44°39' E 037°55'0 0.0
2017-Nov-16 13:30N 44°39' E 037°55'  
2017-Nov-11 22:09N 44°38' E 037°28'1 5.9
2017-Nov-11 21:56N 44°38' E 037°30'3 6.0
2017-Nov-11 21:30N 44°37' E 037°33'3 6.0
2017-Nov-11 21:00N 44°36' E 037°38'3 5.8
2017-Nov-11 20:30N 44°36' E 037°42'3 5.5
2017-Nov-11 20:00N 44°35' E 037°45'2 4.6
2017-Nov-11 19:30N 44°37' E 037°48'3 5.3
2017-Nov-11 19:00N 44°39' E 037°50'2 4.6
2017-Nov-11 18:30N 44°41' E 037°49'2 4.1
2017-Nov-11 18:00N 44°43' E 037°49'0 0.3
2017-Nov-11 17:29N 44°43' E 037°49'0 0.0
2017-Nov-11 16:59N 44°43' E 037°49'0 0.0
2017-Nov-11 16:23N 44°43' E 037°49'0 0.0
2017-Nov-11 15:59N 44°43' E 037°49'0 0.0
2017-Nov-11 15:29N 44°43' E 037°49'0 0.0
2017-Nov-11 14:59N 44°43' E 037°49'0 0.0
2017-Nov-11 14:29N 44°43' E 037°49'0 0.0
2017-Nov-11 13:59N 44°43' E 037°49'0 0.0
2017-Nov-11 13:29N 44°43' E 037°49'0 0.0
2017-Nov-11 12:59N 44°43' E 037°49'0 0.0
2017-Nov-11 12:29N 44°43' E 037°49'0 0.0
2017-Nov-11 11:59N 44°43' E 037°49'0 0.0
2017-Nov-11 11:29N 44°43' E 037°49'0 0.0
2017-Nov-11 10:59N 44°43' E 037°49'0 0.0
2017-Nov-11 10:29N 44°43' E 037°49'0 0.0
2017-Nov-11 09:59N 44°43' E 037°49'0 0.0
2017-Nov-11 09:29N 44°43' E 037°49'0 0.0
2017-Nov-11 08:59N 44°43' E 037°49'1 2.7
2017-Nov-11 08:30N 44°42' E 037°49'3 6.4
2017-Nov-11 08:00N 44°39' E 037°51'2 4.4
2017-Nov-11 07:30N 44°37' E 037°51'3 6.2
2017-Nov-11 07:00N 44°36' E 037°47'3 6.9
2017-Nov-11 06:30N 44°36' E 037°42'3 6.7
2017-Nov-11 06:00N 44°36' E 037°38'3 6.2
2017-Nov-11 05:30N 44°36' E 037°33'3 6.2
2017-Nov-11 04:59N 44°38' E 037°29'  
Track history (hours):
 
Tides and Currents Weather Stations Pressure Air Temp Water Temp Dewpoint Dewpoint Depression Visibility Wind Speed Wind Dir Waves Ship Positions

Solidat

Last reported at 2017-Nov-18 12:42 UTC. Time now 2017-Nov-23 05:40 UTC.
Position N 44°37' E 037°27'.

Length 83 m; draft 4.4 m.

Type: Cargo ship. MMSI: 273327300.

Date/timePositionNaut miles runAvg speedWind from/ knotsBaromVisibWave heightAir tempDewpointWater temp
2017-Nov-18 12:42N 44°37' E 037°27'3 7.0
2017-Nov-18 12:19N 44°36' E 037°30'2 6.3
2017-Nov-18 12:00N 44°35' E 037°33'3 7.0
2017-Nov-18 11:30N 44°35' E 037°38'3 6.7
2017-Nov-18 11:00N 44°35' E 037°42'3 6.2
2017-Nov-18 10:30N 44°36' E 037°47'3 5.8
2017-Nov-18 10:00N 44°38' E 037°49'2 4.7
2017-Nov-18 09:30N 44°40' E 037°51'3 5.6
2017-Nov-18 09:00N 44°42' E 037°49'1 1.7
2017-Nov-18 08:29N 44°43' E 037°49'0 0.0
2017-Nov-18 07:59N 44°43' E 037°49'0 0.0
2017-Nov-18 07:29N 44°43' E 037°49'0 0.0
2017-Nov-18 06:59N 44°43' E 037°49'0 0.0
2017-Nov-18 06:29N 44°43' E 037°49'0 0.0
2017-Nov-18 05:59N 44°43' E 037°49'0 0.0
2017-Nov-18 05:29N 44°43' E 037°49'0 0.0
2017-Nov-18 04:59N 44°43' E 037°49'0 0.0
2017-Nov-18 04:29N 44°43' E 037°49'0 0.0
2017-Nov-18 03:59N 44°43' E 037°49'0 0.0
2017-Nov-18 03:29N 44°43' E 037°49'0 0.0
2017-Nov-18 02:59N 44°43' E 037°49'0 0.0
2017-Nov-18 02:29N 44°43' E 037°49'0 0.0
2017-Nov-18 02:00N 44°43' E 037°49'1 2.7
2017-Nov-18 01:30N 44°42' E 037°49'3 5.4
2017-Nov-18 01:00N 44°40' E 037°51'2 4.7
2017-Nov-18 00:30N 44°39' E 037°54'1 1.3
2017-Nov-18 00:00N 44°39' E 037°55'0 0.0
2017-Nov-17 23:30N 44°39' E 037°55'0 0.0
2017-Nov-17 23:00N 44°39' E 037°55'0 0.0
2017-Nov-17 22:27N 44°39' E 037°55'0 0.1
2017-Nov-17 22:00N 44°39' E 037°55'0 0.0
2017-Nov-17 21:30N 44°39' E 037°55'0 0.0
2017-Nov-17 21:00N 44°39' E 037°55'0 0.0
2017-Nov-17 20:30N 44°39' E 037°55'0 0.0
2017-Nov-17 20:00N 44°39' E 037°55'0 0.0
2017-Nov-17 19:30N 44°39' E 037°55'0 0.1
2017-Nov-17 19:00N 44°39' E 037°55'0 0.0
2017-Nov-17 18:30N 44°39' E 037°55'0 0.0
2017-Nov-17 18:00N 44°39' E 037°55'0 0.0
2017-Nov-17 17:30N 44°39' E 037°55'0 0.0
2017-Nov-17 17:00N 44°39' E 037°55'0 0.0
2017-Nov-17 16:30N 44°39' E 037°55'0 0.0
2017-Nov-17 16:00N 44°39' E 037°55'0 0.0
2017-Nov-17 15:30N 44°39' E 037°55'0 0.0
2017-Nov-17 13:15N 44°39' E 037°55'0 0.0
2017-Nov-17 13:00N 44°39' E 037°55'0 0.0
2017-Nov-17 12:30N 44°39' E 037°55'0 0.0
2017-Nov-17 11:57N 44°39' E 037°55'0 0.0
2017-Nov-17 11:30N 44°39' E 037°55'0 0.0
2017-Nov-17 10:57N 44°39' E 037°55'0 0.0
2017-Nov-17 10:30N 44°39' E 037°55'0 0.0
2017-Nov-17 10:00N 44°39' E 037°55'0 0.0
2017-Nov-17 09:30N 44°39' E 037°55'0 0.0
2017-Nov-17 09:00N 44°39' E 037°55'0 0.0
2017-Nov-17 08:30N 44°39' E 037°55'0 0.0
2017-Nov-17 08:00N 44°39' E 037°55'0 0.0
2017-Nov-17 07:30N 44°39' E 037°55'0 0.0
2017-Nov-17 07:00N 44°39' E 037°55'0 0.0
2017-Nov-17 06:30N 44°39' E 037°55'0 0.0
2017-Nov-16 21:57N 44°39' E 037°55'0 0.0
2017-Nov-16 21:30N 44°39' E 037°55'0 0.0
2017-Nov-16 21:00N 44°39' E 037°55'0 0.0
2017-Nov-16 20:30N 44°39' E 037°55'0 0.0
2017-Nov-16 19:45N 44°39' E 037°55'0 0.0
2017-Nov-16 19:30N 44°39' E 037°55'0 0.0
2017-Nov-16 19:00N 44°39' E 037°55'0 0.0
2017-Nov-16 18:30N 44°39' E 037°55'0 0.0
2017-Nov-16 18:00N 44°39' E 037°55'0 0.0
2017-Nov-16 17:30N 44°39' E 037°55'0 0.0
2017-Nov-16 17:00N 44°39' E 037°55'0 0.0
2017-Nov-16 16:30N 44°39' E 037°55'0 0.0
2017-Nov-16 16:00N 44°39' E 037°55'0 0.0
2017-Nov-16 15:30N 44°39' E 037°55'0 0.0
2017-Nov-16 15:00N 44°39' E 037°55'0 0.0
2017-Nov-16 14:30N 44°39' E 037°55'0 0.0
2017-Nov-16 14:00N 44°39' E 037°55'0 0.0
2017-Nov-16 13:30N 44°39' E 037°55'  
2017-Nov-11 22:09N 44°38' E 037°28'1 5.9
2017-Nov-11 21:56N 44°38' E 037°30'3 6.0
2017-Nov-11 21:30N 44°37' E 037°33'3 6.0
2017-Nov-11 21:00N 44°36' E 037°38'3 5.8
2017-Nov-11 20:30N 44°36' E 037°42'3 5.5
2017-Nov-11 20:00N 44°35' E 037°45'2 4.6
2017-Nov-11 19:30N 44°37' E 037°48'3 5.3
2017-Nov-11 19:00N 44°39' E 037°50'2 4.6
2017-Nov-11 18:30N 44°41' E 037°49'2 4.1
2017-Nov-11 18:00N 44°43' E 037°49'0 0.3
2017-Nov-11 17:29N 44°43' E 037°49'0 0.0
2017-Nov-11 16:59N 44°43' E 037°49'0 0.0
2017-Nov-11 16:23N 44°43' E 037°49'0 0.0
2017-Nov-11 15:59N 44°43' E 037°49'0 0.0
2017-Nov-11 15:29N 44°43' E 037°49'0 0.0
2017-Nov-11 14:59N 44°43' E 037°49'0 0.0
2017-Nov-11 14:29N 44°43' E 037°49'0 0.0
2017-Nov-11 13:59N 44°43' E 037°49'0 0.0
2017-Nov-11 13:29N 44°43' E 037°49'0 0.0
2017-Nov-11 12:59N 44°43' E 037°49'0 0.0
2017-Nov-11 12:29N 44°43' E 037°49'0 0.0
2017-Nov-11 11:59N 44°43' E 037°49'0 0.0
2017-Nov-11 11:29N 44°43' E 037°49'0 0.0
2017-Nov-11 10:59N 44°43' E 037°49'0 0.0
2017-Nov-11 10:29N 44°43' E 037°49'0 0.0
2017-Nov-11 09:59N 44°43' E 037°49'0 0.0
2017-Nov-11 09:29N 44°43' E 037°49'0 0.0
2017-Nov-11 08:59N 44°43' E 037°49'1 2.7
2017-Nov-11 08:30N 44°42' E 037°49'3 6.4
2017-Nov-11 08:00N 44°39' E 037°51'2 4.4
2017-Nov-11 07:30N 44°37' E 037°51'3 6.2
2017-Nov-11 07:00N 44°36' E 037°47'3 6.9
2017-Nov-11 06:30N 44°36' E 037°42'3 6.7
2017-Nov-11 06:00N 44°36' E 037°38'3 6.2
2017-Nov-11 05:30N 44°36' E 037°33'3 6.2
2017-Nov-11 04:59N 44°38' E 037°29'  

Dump ship's entire track history